createdAt,value
2019-06-27T05:57:55.963Z,51.50
2019-06-27T06:00:28.736Z,53.30
2019-06-27T06:02:56.027Z,50.30
2019-06-27T06:05:24.702Z,49.80
2019-06-27T06:07:53.668Z,46.70
2019-06-27T06:10:23.006Z,41.00
2019-06-27T06:12:52.163Z,40.30
2019-06-27T06:15:21.220Z,39.70
2019-06-27T06:17:50.037Z,41.10
2019-06-27T06:20:18.852Z,40.10
2019-06-27T06:22:50.878Z,37.70
2019-06-27T06:25:19.993Z,38.00
2019-06-27T06:27:48.948Z,37.00
2019-06-27T06:30:20.313Z,37.00
2019-06-27T06:32:50.813Z,37.30
2019-06-27T06:35:20.242Z,39.60
2019-06-27T06:37:49.398Z,38.10
2019-06-27T06:40:18.205Z,36.40
2019-06-27T06:42:47.251Z,37.40
2019-06-27T06:45:16.021Z,39.30
2019-06-27T06:47:46.292Z,39.70
2019-06-27T06:50:15.688Z,39.40
2019-06-27T06:52:48.758Z,39.70
2019-06-27T06:55:17.550Z,39.80
2019-06-27T06:57:47.897Z,40.50
2019-06-27T07:00:16.781Z,41.70
2019-06-27T07:02:46.983Z,42.20
2019-06-27T07:05:17.460Z,43.10
2019-06-27T07:07:46.068Z,42.70
2019-06-27T07:10:14.939Z,42.80
2019-06-27T07:12:43.637Z,42.70
2019-06-27T07:15:12.370Z,42.70
2019-06-27T07:17:43.401Z,42.60
2019-06-27T07:20:14.485Z,42.50
2019-06-27T07:22:43.267Z,42.70
2019-06-27T07:25:13.033Z,42.80
2019-06-27T07:27:48.709Z,42.80
2019-06-27T07:30:17.410Z,43.10
2019-06-27T07:32:46.019Z,43.00
2019-06-27T07:35:15.208Z,42.90
2019-06-27T07:37:45.721Z,43.20
2019-06-27T07:40:14.730Z,43.20
2019-06-27T07:42:43.340Z,43.20
2019-06-27T07:45:12.074Z,43.20
2019-06-27T07:47:45.523Z,43.40
2019-06-27T07:50:17.076Z,43.40
2019-06-27T07:52:48.819Z,43.40
2019-06-27T07:55:19.388Z,43.40
2019-06-27T07:57:51.739Z,43.60
2019-06-27T08:00:20.630Z,43.60
2019-06-27T08:02:51.285Z,43.60
2019-06-27T08:05:20.110Z,43.60
2019-06-27T08:07:49.281Z,43.70
2019-06-27T08:10:18.122Z,43.70
2019-06-27T08:12:47.497Z,43.80
2019-06-27T08:15:19.672Z,43.70
2019-06-27T08:17:50.963Z,43.90
2019-06-27T08:20:19.712Z,43.80
2019-06-27T08:22:48.770Z,43.80
2019-06-27T08:25:18.036Z,43.90
2019-06-27T08:27:47.399Z,44.00
2019-06-27T08:30:16.164Z,44.00
2019-06-27T08:32:45.390Z,44.00
2019-06-27T08:35:14.526Z,44.00
2019-06-27T08:37:43.399Z,44.40
2019-06-27T08:40:12.547Z,43.90
2019-06-27T08:42:41.575Z,43.80
2019-06-27T08:45:12.237Z,43.80
2019-06-27T08:47:41.302Z,44.00
2019-06-27T08:50:11.076Z,43.90
2019-06-27T08:52:39.955Z,43.90
2019-06-27T08:55:09.440Z,44.00
2019-06-27T08:57:39.449Z,44.00
2019-06-27T09:00:08.336Z,44.00
2019-06-27T09:02:37.982Z,44.10
2019-06-27T09:05:08.328Z,44.10
2019-06-27T09:07:39.948Z,44.10
2019-06-27T09:10:11.165Z,44.10
2019-06-27T09:12:39.924Z,44.10
2019-06-27T09:15:12.143Z,44.20
2019-06-27T09:17:42.336Z,44.20
2019-06-27T09:20:15.238Z,44.70
2019-06-27T09:22:44.836Z,44.30
2019-06-27T09:25:15.148Z,44.40
2019-06-27T09:27:43.969Z,44.20
2019-06-27T09:30:12.996Z,44.40
2019-06-27T09:32:41.809Z,44.40
2019-06-27T09:35:12.978Z,44.30
2019-06-27T09:37:41.792Z,44.40
2019-06-27T09:40:10.772Z,44.40
2019-06-27T09:42:39.860Z,44.40
2019-06-27T09:45:09.419Z,44.40
2019-06-27T09:47:40.567Z,44.30
2019-06-27T09:50:08.940Z,44.40
2019-06-27T09:52:38.270Z,44.40
2019-06-27T09:55:09.438Z,44.30
2019-06-27T09:57:38.369Z,44.40
2019-06-27T10:00:09.503Z,44.40
2019-06-27T10:02:42.356Z,44.40
2019-06-27T10:47:51.606Z,48.80
2019-06-27T10:50:20.694Z,48.00
2019-06-27T10:52:49.810Z,47.60
2019-06-27T10:55:18.649Z,47.30
2019-06-27T10:57:48.793Z,46.90
2019-06-27T11:00:17.479Z,49.70
2019-06-27T11:02:46.316Z,51.40
2019-06-27T11:05:15.088Z,49.70
2019-06-27T11:07:43.877Z,49.50
2019-06-27T11:10:12.994Z,48.90
2019-06-27T11:12:45.034Z,48.90
2019-06-27T11:15:14.781Z,48.40
2019-06-27T11:17:44.188Z,48.20
2019-06-27T11:20:15.299Z,48.00
2019-06-27T11:22:45.505Z,47.90
2019-06-27T11:25:14.627Z,47.80
2019-06-27T11:27:43.399Z,47.50
2019-06-27T11:30:12.342Z,47.70
2019-06-27T11:32:41.273Z,48.20
2019-06-27T11:35:11.015Z,47.60
2019-06-27T11:37:41.378Z,47.60
2019-06-27T11:40:12.327Z,47.40
2019-06-27T11:42:40.983Z,47.20
2019-06-27T11:45:10.540Z,47.10
2019-06-27T11:51:08.381Z,47.10
2019-06-27T11:53:37.559Z,47.80
2019-06-27T11:56:06.556Z,47.70
2019-06-27T11:58:35.321Z,47.50
2019-06-27T12:01:04.056Z,47.40
2019-06-27T12:03:48.187Z,47.30
2019-06-27T12:06:03.350Z,47.30
2019-06-27T12:08:32.139Z,47.10
2019-06-27T12:11:00.967Z,47.10
2019-06-27T12:13:29.735Z,46.90
2019-06-27T12:15:59.059Z,46.70
2019-06-27T12:18:28.200Z,46.50
2019-06-27T12:20:57.587Z,46.40
2019-06-27T12:23:26.779Z,46.30
2019-06-27T12:25:56.297Z,46.30
2019-06-27T12:28:25.161Z,46.10
2019-06-27T12:30:53.927Z,46.10
2019-06-27T12:33:23.146Z,45.90
2019-06-27T12:35:52.107Z,45.90
2019-06-27T12:38:21.030Z,45.80
2019-06-27T12:40:49.893Z,45.50
2019-06-27T12:43:18.654Z,45.30
2019-06-27T12:45:47.703Z,45.20
2019-06-27T12:48:16.419Z,45.20
2019-06-27T12:50:46.182Z,45.20
2019-06-27T12:53:15.296Z,45.10
2019-06-27T12:55:44.042Z,45.20
2019-06-27T12:58:12.835Z,45.10
2019-06-27T13:00:41.789Z,45.20
2019-06-27T13:03:10.637Z,45.10
2019-06-27T13:05:39.418Z,45.10
2019-06-27T13:08:08.025Z,45.10
2019-06-27T13:10:37.007Z,45.00
2019-06-27T13:13:06.446Z,45.00
2019-06-27T13:15:41.344Z,44.90
2019-06-27T13:18:10.083Z,44.90
2019-06-27T13:20:56.558Z,44.90
2019-06-27T13:23:12.070Z,44.90
2019-06-27T13:25:41.635Z,44.90
2019-06-27T13:28:10.463Z,45.00
2019-06-27T13:30:39.390Z,45.60
2019-06-27T13:33:08.140Z,44.90
2019-06-27T13:35:36.904Z,44.90
2019-06-27T13:38:05.858Z,44.90
2019-06-27T13:40:34.975Z,44.90
2019-06-27T13:43:03.638Z,44.80
2019-06-27T13:45:32.285Z,44.80
2019-06-27T13:48:01.584Z,44.80
2019-06-27T13:50:30.254Z,44.80
2019-06-27T13:53:00.168Z,44.70
2019-06-27T13:55:28.839Z,44.70
2019-06-27T13:57:57.847Z,44.70
2019-06-27T14:00:30.586Z,44.60
2019-06-27T14:02:59.429Z,44.60
2019-06-27T14:05:28.109Z,44.60
2019-06-27T14:07:57.242Z,44.70
2019-06-27T14:10:26.079Z,44.50
2019-06-27T14:12:54.829Z,44.50
2019-06-27T14:15:24.038Z,44.40
2019-06-27T14:17:52.871Z,44.40
2019-06-27T14:20:21.816Z,44.40
2019-06-27T14:22:50.606Z,44.40
2019-06-27T14:25:19.646Z,44.50
2019-06-27T14:27:48.719Z,44.50
2019-06-27T14:30:18.675Z,44.40
2019-06-27T14:32:47.880Z,44.40
2019-06-27T14:35:16.731Z,44.40
2019-06-27T14:37:45.620Z,44.50
2019-06-27T14:40:15.060Z,44.40
2019-06-27T14:42:44.271Z,44.50
2019-06-27T14:45:13.103Z,44.50
2019-06-27T14:47:41.826Z,44.40
2019-06-27T14:50:10.538Z,44.40
2019-06-27T14:52:39.279Z,44.50
2019-06-27T14:55:07.883Z,44.50
2019-06-27T14:57:36.856Z,44.40
2019-06-27T15:00:08.461Z,44.50
2019-06-27T15:02:37.821Z,44.60
